Time;durP1;ratioP1;P1;durP2;ratioP2;P2;SDS_P1;SDS_P2;PMS_P1;PMS_P2;Temp;Humidity;BMP_temperature;BMP_pressure;BME280_temperature;BME280_humidity;BME280_pressure;Samples;Min_cycle;Max_cycle;Signal;HPM_P1;HPM_P2
2022/06/24 00:02:52;;;;;;;6.82;1.10;;;;;;;24.25;47.98;99387.69;10457335;28;20590;-75
2022/06/24 00:07:53;;;;;;;2.58;0.80;;;;;;;24.08;48.61;99401.13;10458483;28;20053;-73
2022/06/24 00:12:55;;;;;;;5.95;1.42;;;;;;;24.02;48.32;99405.63;10456332;28;20091;-75
2022/06/24 00:17:57;;;;;;;3.65;1.00;;;;;;;23.96;48.38;99410.09;10454972;28;20151;-71
2022/06/24 00:22:59;;;;;;;5.38;0.65;;;;;;;23.87;48.59;99421.50;10456281;28;20153;-75
2022/06/24 00:28:09;;;;;;;3.57;0.80;;;;;;;23.77;48.98;99413.88;10451957;28;20052;-74
2022/06/24 00:33:15;;;;;;;3.95;0.80;;;;;;;23.82;49.22;99424.88;10455617;28;20505;-73
2022/06/24 00:38:30;;;;;;;3.88;0.75;;;;;;;23.81;49.74;99436.84;10450624;28;20066;-73
2022/06/24 00:43:38;;;;;;;1.52;0.70;;;;;;;23.71;49.64;99456.38;10456663;28;20244;-76
2022/06/24 00:48:43;;;;;;;2.70;0.60;;;;;;;23.57;50.70;99477.47;10455103;28;20545;-72
2022/06/24 00:53:47;;;;;;;2.65;0.75;;;;;;;23.48;51.41;99511.41;10455519;28;20044;-73
2022/06/24 00:59:08;;;;;;;2.72;0.50;;;;;;;23.34;52.16;99526.19;10463006;28;20129;-72
2022/06/24 01:04:11;;;;;;;4.95;0.80;;;;;;;23.14;53.19;99524.50;10461236;28;20154;-72
2022/06/24 01:09:13;;;;;;;6.43;1.20;;;;;;;23.07;58.57;99515.56;10461276;28;20115;-75
2022/06/24 01:14:14;;;;;;;3.85;0.90;;;;;;;22.83;61.11;99515.34;10463054;28;20079;-74
2022/06/24 01:19:16;;;;;;;5.32;1.30;;;;;;;22.58;61.71;99502.63;10466669;28;20186;-73
2022/06/24 01:24:23;;;;;;;4.93;1.30;;;;;;;22.28;66.64;99490.69;10463040;28;20071;-74
2022/06/24 01:29:26;;;;;;;4.55;1.50;;;;;;;22.34;66.90;99504.25;10465423;28;20469;-72
2022/06/24 01:34:27;;;;;;;4.15;1.27;;;;;;;22.36;72.14;99487.78;10464549;28;20117;-73
2022/06/24 01:39:29;;;;;;;6.85;2.75;;;;;;;22.49;74.39;99503.94;10470831;28;20072;-75
2022/06/24 01:44:31;;;;;;;6.75;1.88;;;;;;;22.56;73.37;99504.75;10460674;28;20471;-74
2022/06/24 01:49:32;;;;;;;7.13;1.63;;;;;;;22.59;74.47;99477.19;10457059;28;20121;-71
2022/06/24 01:54:34;;;;;;;6.95;1.55;;;;;;;22.51;72.74;99473.91;10461621;28;20999;-74
2022/06/24 01:59:35;;;;;;;7.47;2.17;;;;;;;22.41;75.15;99479.81;10459179;28;20048;-74
2022/06/24 02:04:36;;;;;;;5.05;1.83;;;;;;;22.34;73.41;99498.00;10461846;28;20131;-72
2022/06/24 02:13:26;;;;;;;5.07;1.52;;;;;;;22.31;73.91;99471.28;10465821;28;20121;-71
2022/06/24 02:14:59;;;;;;;6.88;1.70;;;;;;;22.33;75.21;99451.09;10466766;28;20576;-71
2022/06/24 02:20:01;;;;;;;4.38;1.38;;;;;;;22.11;74.35;99445.16;10458371;28;20147;-72
2022/06/24 02:25:02;;;;;;;3.08;1.30;;;;;;;22.04;72.28;99447.09;10457395;28;20135;-72
2022/06/24 02:30:04;;;;;;;4.25;1.20;;;;;;;22.09;76.80;99427.47;10458583;28;20140;-72
2022/06/24 02:35:06;;;;;;;4.18;1.20;;;;;;;22.02;77.21;99439.19;10451332;28;20217;-73
2022/06/24 02:45:28;;;;;;;4.75;1.33;;;;;;;21.96;75.88;99429.19;10456551;28;20133;-72
2022/06/24 02:50:29;;;;;;;7.03;2.33;;;;;;;21.94;79.28;99403.41;10459761;28;20068;-72
2022/06/24 02:55:31;;;;;;;4.60;1.35;;;;;;;21.99;78.66;99392.72;10456187;28;20047;-73
2022/06/24 03:00:33;;;;;;;4.25;1.67;;;;;;;22.01;80.33;99377.09;10453679;28;20059;-63
2022/06/24 03:05:34;;;;;;;7.05;1.45;;;;;;;21.89;78.37;99379.69;10453726;28;20891;-65
2022/06/24 03:10:36;;;;;;;3.67;1.42;;;;;;;21.78;77.82;99391.19;10456077;28;20158;-64
2022/06/24 03:15:38;;;;;;;3.75;1.20;;;;;;;21.64;77.68;99395.88;10448322;28;20166;-65
2022/06/24 03:20:40;;;;;;;4.32;1.33;;;;;;;21.53;80.08;99416.34;10447605;28;20220;-64
2022/06/24 03:25:46;;;;;;;3.85;1.60;;;;;;;21.42;79.61;99423.19;10454267;28;20173;-65
2022/06/24 03:30:48;;;;;;;4.05;1.85;;;;;;;21.38;80.80;99430.13;10448708;28;20067;-64
2022/06/24 03:35:49;;;;;;;4.22;1.73;;;;;;;21.37;79.97;99447.38;10450568;28;20441;-65
2022/06/24 03:40:51;;;;;;;6.85;1.88;;;;;;;21.38;81.40;99454.47;10452090;28;20386;-64
2022/06/24 03:46:05;;;;;;;7.45;2.13;;;;;;;21.36;80.70;99448.44;10449954;28;20098;-64
2022/06/24 03:51:06;;;;;;;4.07;1.80;;;;;;;21.35;80.97;99466.56;10451848;28;20052;-64
2022/06/24 03:56:11;;;;;;;5.57;2.30;;;;;;;21.31;81.64;99464.50;10449516;28;20060;-64
2022/06/24 04:01:12;;;;;;;8.35;2.97;;;;;;;21.33;80.95;99457.81;10450647;28;20060;-64
2022/06/24 04:06:13;;;;;;;4.53;2.03;;;;;;;21.33;81.62;99462.38;10451296;28;20044;-65
2022/06/24 04:11:16;;;;;;;6.10;2.70;;;;;;;21.22;82.04;99463.06;10443710;28;20139;-65
2022/06/24 04:16:18;;;;;;;5.17;3.07;;;;;;;21.19;81.73;99457.00;10450407;28;20206;-64
2022/06/24 04:21:19;;;;;;;6.47;3.90;;;;;;;21.15;82.84;99444.97;10454448;28;20052;-64
2022/06/24 04:26:21;;;;;;;5.78;3.20;;;;;;;21.25;83.12;99443.69;10455545;28;20052;-64
2022/06/24 04:31:22;;;;;;;4.88;3.03;;;;;;;21.29;83.19;99439.53;10453927;28;20078;-64
2022/06/24 04:36:24;;;;;;;4.30;2.78;;;;;;;21.33;82.78;99440.72;10449873;28;20113;-64
2022/06/24 04:41:25;;;;;;;6.57;3.40;;;;;;;21.26;81.63;99432.66;10454568;28;20120;-64
2022/06/24 04:46:27;;;;;;;4.82;2.78;;;;;;;21.27;82.59;99425.34;10449591;28;20048;-64
2022/06/24 04:51:28;;;;;;;5.90;2.88;;;;;;;21.24;83.27;99432.00;10448068;28;20040;-64
2022/06/24 04:56:30;;;;;;;4.57;2.83;;;;;;;21.27;81.34;99430.75;10450487;28;20188;-64
2022/06/24 05:01:34;;;;;;;5.82;2.58;;;;;;;21.18;81.55;99433.72;10445348;28;20037;-64
2022/06/24 05:06:35;;;;;;;5.93;2.90;;;;;;;21.18;80.22;99420.19;10448788;28;20208;-64
2022/06/24 05:11:37;;;;;;;6.63;3.58;;;;;;;21.21;82.35;99420.78;10449269;28;20555;-64
2022/06/24 05:16:40;;;;;;;7.07;3.58;;;;;;;21.27;82.23;99409.13;10454581;28;20380;-64
2022/06/24 05:21:42;;;;;;;4.32;3.20;;;;;;;21.22;81.36;99401.66;10458830;28;20505;-64
2022/06/24 05:26:44;;;;;;;4.28;3.05;;;;;;;21.28;80.96;99414.31;10446653;28;20165;-65
2022/06/24 05:31:46;;;;;;;4.40;3.38;;;;;;;21.15;82.01;99422.47;10451898;28;20217;-65
2022/06/24 05:36:47;;;;;;;4.85;2.60;;;;;;;21.21;80.44;99415.38;10452274;28;20413;-64
2022/06/24 05:41:49;;;;;;;2.90;2.60;;;;;;;21.16;80.58;99414.16;10458605;28;20103;-64
2022/06/24 05:46:51;;;;;;;4.30;2.28;;;;;;;21.05;81.33;99422.94;10458958;28;20292;-64
2022/06/24 05:51:53;;;;;;;5.05;2.85;;;;;;;20.95;81.48;99407.13;10454190;28;20207;-63
2022/06/24 05:56:54;;;;;;;5.22;3.55;;;;;;;21.01;81.28;99410.88;10428847;28;20667;-64
2022/06/24 06:01:56;;;;;;;5.32;3.92;;;;;;;21.00;80.56;99417.31;10434963;28;20056;-64
2022/06/24 06:06:58;;;;;;;4.32;3.40;;;;;;;21.20;79.97;99409.16;10439078;28;20153;-64
2022/06/24 06:11:59;;;;;;;4.35;3.92;;;;;;;21.21;79.47;99415.38;10430859;28;20173;-64
2022/06/24 06:17:02;;;;;;;7.05;4.32;;;;;;;21.11;79.33;99408.56;10429510;28;20056;-64
2022/06/24 06:22:04;;;;;;;5.97;4.37;;;;;;;21.13;79.38;99414.56;10430789;28;21010;-65
2022/06/24 06:27:07;;;;;;;6.60;5.82;;;;;;;21.18;79.14;99413.94;10422711;28;20554;-64
2022/06/24 06:32:08;;;;;;;7.93;4.88;;;;;;;21.16;78.88;99414.16;10420365;28;20101;-64
2022/06/24 06:37:11;;;;;;;5.05;4.43;;;;;;;21.34;77.99;99415.34;10428924;28;20052;-64
2022/06/24 06:42:12;;;;;;;6.47;3.88;;;;;;;21.50;78.58;99423.00;10427507;28;20375;-66
2022/06/24 06:47:13;;;;;;;5.00;3.83;;;;;;;21.39;78.13;99412.81;10427531;28;20083;-66
2022/06/24 06:52:15;;;;;;;6.07;3.83;;;;;;;21.46;77.26;99416.31;10429737;28;20114;-64
2022/06/24 06:57:16;;;;;;;4.65;3.08;;;;;;;21.47;76.30;99412.56;10433051;28;20158;-65
2022/06/24 07:02:18;;;;;;;5.88;3.13;;;;;;;21.26;77.50;99415.56;10430139;28;20593;-61
2022/06/24 07:07:20;;;;;;;6.35;3.22;;;;;;;21.28;75.87;99408.09;10430171;28;20048;-67
2022/06/24 07:12:21;;;;;;;8.13;3.80;;;;;;;21.36;76.84;99410.53;10429107;28;20559;-60
2022/06/24 07:17:23;;;;;;;5.53;3.08;;;;;;;21.67;76.22;99398.13;10427168;28;20052;-61
2022/06/24 07:22:24;;;;;;;3.97;2.15;;;;;;;21.89;73.80;99398.63;10416737;28;20056;-61
2022/06/24 07:27:26;;;;;;;5.00;2.67;;;;;;;22.18;72.00;99401.75;10413266;28;20131;-65
2022/06/24 07:32:27;;;;;;;9.30;2.28;;;;;;;22.42;71.51;99394.72;10428109;28;20052;-58
2022/06/24 07:37:29;;;;;;;5.22;2.55;;;;;;;22.35;69.01;99388.50;10432198;28;20976;-58
2022/06/24 07:42:30;;;;;;;3.38;2.20;;;;;;;22.51;68.79;99379.81;10426077;28;20152;-58
2022/06/24 07:47:34;;;;;;;4.93;2.17;;;;;;;22.58;67.87;99377.88;10420895;28;20048;-58
2022/06/24 07:52:36;;;;;;;3.00;2.08;;;;;;;22.43;66.62;99369.28;10420699;28;20095;-58
2022/06/24 07:57:37;;;;;;;2.70;1.50;;;;;;;22.38;67.02;99366.38;10421765;28;20060;-58
2022/06/24 08:02:39;;;;;;;4.45;2.08;;;;;;;22.50;66.87;99377.31;10425927;28;20052;-58
2022/06/24 08:07:41;;;;;;;2.25;1.70;;;;;;;22.83;66.45;99368.03;10428464;28;20053;-58
2022/06/24 08:12:42;;;;;;;4.43;1.20;;;;;;;22.75;64.64;99375.41;10422077;28;20052;-58
2022/06/24 08:17:43;;;;;;;3.20;1.52;;;;;;;22.66;64.84;99384.06;10424439;28;20051;-58
2022/06/24 08:22:45;;;;;;;3.55;1.90;;;;;;;22.34;65.07;99370.56;10428796;28;20361;-57
2022/06/24 08:27:46;;;;;;;1.58;1.25;;;;;;;22.64;64.50;99372.59;10422903;28;20547;-57
2022/06/24 08:32:48;;;;;;;5.20;1.95;;;;;;;23.08;62.45;99354.38;10451478;28;20139;-59
2022/06/24 08:37:49;;;;;;;3.28;1.88;;;;;;;23.31;60.61;99359.13;10447364;28;20091;-59
2022/06/24 08:42:56;;;;;;;3.30;1.60;;;;;;;23.02;61.81;99366.16;10447143;28;20152;-60
2022/06/24 08:47:57;;;;;;;3.38;1.60;;;;;;;22.82;62.50;99360.94;10447072;28;20075;-60
2022/06/24 08:53:04;;;;;;;5.22;2.03;;;;;;;22.62;62.68;99367.41;10449189;28;20140;-71
2022/06/24 08:58:12;;;;;;;2.97;1.70;;;;;;;22.34;63.61;99371.44;10449783;28;20090;-71
2022/06/24 09:03:14;;;;;;;2.95;1.63;;;;;;;22.12;64.80;99370.94;10452212;28;20197;-73
2022/06/24 09:08:16;;;;;;;4.05;1.60;;;;;;;21.89;66.07;99379.69;10451358;28;20182;-71
2022/06/24 09:13:21;;;;;;;1.70;1.40;;;;;;;21.67;66.57;99381.88;10436028;28;20162;-73
2022/06/24 09:18:24;;;;;;;2.20;1.50;;;;;;;21.64;67.16;99382.31;10447850;28;20171;-70
2022/06/24 09:23:25;;;;;;;3.57;1.47;;;;;;;21.74;66.04;99388.09;10455451;28;20052;-70
2022/06/24 09:28:29;;;;;;;2.42;1.55;;;;;;;21.76;66.21;99387.88;10460216;28;20114;-71
2022/06/24 09:33:42;;;;;;;3.00;1.90;;;;;;;21.68;66.40;99380.84;10459414;28;20113;-68
2022/06/24 09:39:05;;;;;;;2.83;1.60;;;;;;;21.89;66.38;99383.19;10462382;28;20478;-70
2022/06/24 09:44:06;;;;;;;3.53;2.05;;;;;;;22.38;64.80;99377.22;10467656;28;20072;-71
2022/06/24 09:49:13;;;;;;;2.10;1.50;;;;;;;22.99;63.29;99366.59;10472576;28;20095;-68
2022/06/24 09:54:15;;;;;;;2.85;1.50;;;;;;;23.52;60.33;99376.00;10467566;28;20056;-68
2022/06/24 10:04:36;;;;;;;2.95;1.85;;;;;;;24.18;58.40;99375.03;10449401;28;20166;-69
2022/06/24 10:09:38;;;;;;;2.22;1.10;;;;;;;23.90;58.79;99372.97;10422501;28;20060;-68
2022/06/24 10:14:39;;;;;;;5.82;2.83;;;;;;;23.57;58.06;99368.81;10444098;28;20135;-69
2022/06/24 10:19:43;;;;;;;3.63;1.80;;;;;;;23.65;58.23;99364.94;10451871;28;21658;-69
2022/06/24 10:24:44;;;;;;;3.78;1.77;;;;;;;23.94;57.55;99370.59;10441030;28;20048;-68
2022/06/24 10:29:46;;;;;;;2.78;1.80;;;;;;;24.60;56.58;99365.97;10448340;28;20124;-69
2022/06/24 10:34:47;;;;;;;2.75;1.95;;;;;;;24.47;54.89;99352.56;10447954;28;20052;-70
2022/06/24 10:39:52;;;;;;;2.47;2.05;;;;;;;24.75;54.37;99356.50;10455284;28;20074;-69
2022/06/24 10:45:02;;;;;;;2.15;1.33;;;;;;;24.76;53.38;99363.59;10448921;28;20846;-67
2022/06/24 10:50:14;;;;;;;2.13;1.23;;;;;;;25.03;54.01;99342.94;10451232;28;21128;-68
2022/06/24 10:55:21;;;;;;;1.63;1.38;;;;;;;25.37;54.46;99342.25;10454668;28;20213;-67
2022/06/24 11:00:26;;;;;;;2.97;1.27;;;;;;;25.44;51.60;99347.59;10449592;28;20051;-68
2022/06/24 11:05:36;;;;;;;1.48;1.10;;;;;;;25.38;51.81;99344.75;10447874;22;20160;-68
2022/06/24 11:10:38;;;;;;;2.28;1.30;;;;;;;25.71;51.35;99329.53;10450708;28;20179;-67
2022/06/24 11:15:45;;;;;;;1.17;1.07;;;;;;;26.11;50.31;99328.63;10429661;28;20051;-68
2022/06/24 11:20:49;;;;;;;1.77;1.00;;;;;;;26.31;49.49;99313.63;10425375;28;20128;-67
2022/06/24 11:26:12;;;;;;;2.08;0.85;;;;;;;26.63;46.35;99319.28;10418245;28;20289;-68
2022/06/24 11:31:30;;;;;;;1.00;0.90;;;;;;;26.74;44.75;99325.75;10426849;28;20056;-68
2022/06/24 11:36:33;;;;;;;1.15;0.70;;;;;;;26.92;45.93;99323.78;10420613;28;20387;-68
2022/06/24 11:41:53;;;;;;;1.63;0.90;;;;;;;26.88;46.65;99319.91;10415907;28;20093;-68
2022/06/24 11:46:55;;;;;;;3.17;0.90;;;;;;;26.89;45.24;99310.63;10425107;28;20108;-66
2022/06/24 11:51:56;;;;;;;1.98;1.10;;;;;;;27.27;44.42;99306.16;10423089;28;20124;-67
2022/06/24 11:56:59;;;;;;;1.42;0.70;;;;;;;27.60;44.29;99294.22;10421052;28;20466;-66
2022/06/24 12:02:00;;;;;;;1.67;1.00;;;;;;;27.70;43.51;99301.69;10425662;28;20115;-67
2022/06/24 12:07:06;;;;;;;1.38;0.70;;;;;;;27.51;43.84;99310.25;10425570;28;20056;-68
2022/06/24 12:12:12;;;;;;;2.67;0.70;;;;;;;27.67;42.96;99296.75;10421639;28;20048;-67
2022/06/24 12:17:15;;;;;;;0.70;0.60;;;;;;;27.94;42.74;99290.38;10416263;28;20060;-66
2022/06/24 12:22:18;;;;;;;2.50;0.80;;;;;;;27.95;41.77;99281.09;10426489;28;20381;-67
2022/06/24 12:27:32;;;;;;;2.22;0.60;;;;;;;28.08;42.14;99264.28;10422829;28;20103;-66
2022/06/24 12:32:50;;;;;;;1.33;0.60;;;;;;;28.17;40.10;99273.63;10423149;28;20056;-67
2022/06/24 12:37:52;;;;;;;1.60;0.70;;;;;;;28.49;39.62;99269.16;10425239;28;20182;-67
2022/06/24 12:43:07;;;;;;;4.03;0.73;;;;;;;28.55;39.18;99270.84;10421701;28;20131;-67
2022/06/24 12:53:29;;;;;;;1.15;0.50;;;;;;;28.84;39.05;99235.69;10433149;28;20048;-67
2022/06/24 12:58:32;;;;;;;1.50;0.75;;;;;;;29.10;38.57;99242.03;10430213;28;20075;-66
2022/06/24 13:03:33;;;;;;;1.08;0.55;;;;;;;29.04;39.19;99237.63;10435474;28;20135;-66
2022/06/24 13:08:35;;;;;;;1.87;0.63;;;;;;;29.19;39.44;99233.28;10432248;28;20641;-68
2022/06/24 13:13:36;;;;;;;1.15;0.57;;;;;;;29.16;37.80;99220.97;10435819;28;20052;-67
2022/06/24 13:18:37;;;;;;;2.07;0.50;;;;;;;28.76;36.61;99219.75;10443770;28;20113;-66
2022/06/24 13:23:39;;;;;;;1.50;0.37;;;;;;;28.85;37.04;99212.66;10432825;28;20072;-66
2022/06/24 13:28:41;;;;;;;1.40;0.70;;;;;;;28.82;37.13;99213.19;10441634;28;20049;-67
2022/06/24 13:33:42;;;;;;;1.20;0.70;;;;;;;28.78;37.12;99212.13;10427714;28;20048;-67
2022/06/24 13:38:43;;;;;;;1.80;0.60;;;;;;;28.71;37.31;99204.13;10425435;28;20132;-68
2022/06/24 13:43:45;;;;;;;0.90;0.50;;;;;;;28.94;36.25;99198.47;10424707;28;20536;-68
2022/06/24 13:48:46;;;;;;;0.70;0.50;;;;;;;29.05;37.34;99208.31;10423875;28;20059;-67
2022/06/24 13:53:49;;;;;;;1.77;0.77;;;;;;;29.16;36.16;99188.06;10433606;28;20045;-67
2022/06/24 13:58:50;;;;;;;1.20;0.82;;;;;;;29.21;36.87;99193.59;10425591;28;20760;-67
2022/06/24 14:03:56;;;;;;;2.03;0.70;;;;;;;28.89;36.08;99194.59;10428515;28;20059;-67
2022/06/24 14:08:58;;;;;;;0.80;0.60;;;;;;;28.81;35.69;99200.63;10426992;28;20133;-67
2022/06/24 14:13:59;;;;;;;1.23;0.90;;;;;;;28.60;35.87;99194.25;10426559;28;20045;-68
2022/06/24 14:19:01;;;;;;;1.13;0.70;;;;;;;28.68;35.69;99210.16;10439947;28;20078;-68
2022/06/24 14:29:22;;;;;;;1.23;0.80;;;;;;;28.60;35.01;99201.63;10431185;28;20060;-67
2022/06/24 14:34:24;;;;;;;1.53;0.67;;;;;;;28.67;37.20;99205.75;10427093;28;20509;-69
2022/06/24 14:44:51;;;;;;;0.95;0.68;;;;;;;28.92;35.88;99185.84;10436154;28;20724;-68
2022/06/24 14:49:52;;;;;;;1.50;0.70;;;;;;;28.66;35.39;99167.69;10427966;28;20278;-67
2022/06/24 14:54:54;;;;;;;1.50;1.00;;;;;;;28.45;36.55;99175.84;10437462;28;20819;-67
2022/06/24 14:59:55;;;;;;;1.27;0.57;;;;;;;28.41;37.23;99163.78;10431490;28;20461;-68
2022/06/24 15:04:57;;;;;;;1.20;1.10;;;;;;;28.28;36.97;99156.06;10423763;28;20556;-67
2022/06/24 15:09:58;;;;;;;1.20;0.90;;;;;;;28.18;37.74;99151.38;10423257;28;20832;-67
2022/06/24 15:15:00;;;;;;;2.20;0.80;;;;;;;28.11;38.32;99143.41;10426174;28;20280;-67
2022/06/24 15:20:02;;;;;;;1.48;0.80;;;;;;;27.93;38.04;99150.13;10424182;28;20203;-66
2022/06/24 15:25:04;;;;;;;1.83;0.70;;;;;;;27.73;38.96;99148.09;10415816;28;20058;-67
2022/06/24 15:30:06;;;;;;;2.35;1.35;;;;;;;27.68;39.08;99167.19;10424024;28;20199;-68
2022/06/24 15:35:09;;;;;;;0.90;0.80;;;;;;;27.47;39.55;99161.59;10424028;28;20673;-68
2022/06/24 15:40:11;;;;;;;1.67;0.73;;;;;;;27.35;39.89;99169.09;10427118;28;20711;-68
2022/06/24 15:45:13;;;;;;;0.80;0.65;;;;;;;27.16;40.23;99169.47;10421470;28;20574;-68
2022/06/24 15:50:15;;;;;;;1.80;0.80;;;;;;;27.03;40.23;99183.56;10431626;28;20052;-67
2022/06/24 15:55:16;;;;;;;2.67;0.98;;;;;;;26.87;40.54;99196.22;10432219;28;20045;-68
2022/06/24 16:00:18;;;;;;;1.65;1.08;;;;;;;26.55;40.79;99209.75;10436279;28;20175;-68
2022/06/24 16:05:19;;;;;;;2.55;0.77;;;;;;;26.36;41.17;99215.53;10427387;28;20496;-68
2022/06/24 16:10:21;;;;;;;4.13;0.80;;;;;;;25.73;46.66;99248.38;10432733;28;20106;-68
2022/06/24 16:15:22;;;;;;;5.05;0.77;;;;;;;25.12;48.60;99274.53;10447486;28;20109;-69
2022/06/24 16:20:24;;;;;;;3.10;0.88;;;;;;;24.59;50.96;99281.88;10426507;28;20091;-68
2022/06/24 16:30:46;;;;;;;1.17;0.63;;;;;;;24.11;50.42;99309.06;10449165;28;20045;-67
2022/06/24 16:35:47;;;;;;;2.17;0.40;;;;;;;23.69;52.19;99324.53;10430242;28;20104;-68
2022/06/24 16:40:50;;;;;;;2.33;0.82;;;;;;;23.41;56.56;99336.88;10419307;28;20143;-68
2022/06/24 16:45:53;;;;;;;1.90;0.90;;;;;;;23.25;60.15;99350.00;10429548;28;20137;-68
2022/06/24 16:50:54;;;;;;;4.20;1.45;;;;;;;22.93;64.48;99347.44;10427865;28;20190;-67
2022/06/24 16:56:01;;;;;;;3.60;1.20;;;;;;;22.72;68.51;99372.31;10421515;28;20048;-68
2022/06/24 17:01:03;;;;;;;3.35;1.67;;;;;;;22.69;68.13;99387.16;10430085;28;20198;-68
2022/06/24 17:06:07;;;;;;;2.53;1.38;;;;;;;22.65;69.18;99401.38;10428178;28;20072;-69
2022/06/24 17:11:08;;;;;;;4.43;1.80;;;;;;;22.69;71.45;99400.72;10424386;28;20060;-68
2022/06/24 17:16:09;;;;;;;3.63;1.20;;;;;;;22.55;69.51;99419.00;10425261;28;20143;-67
2022/06/24 17:21:12;;;;;;;5.07;1.40;;;;;;;22.56;72.28;99428.81;10423186;28;20155;-68
2022/06/24 17:26:13;;;;;;;4.57;1.50;;;;;;;22.50;73.18;99442.41;10413686;28;20052;-68
2022/06/24 17:31:16;;;;;;;6.60;2.75;;;;;;;22.42;74.00;99449.75;10421647;28;20061;-67
2022/06/24 17:36:18;;;;;;;4.93;2.17;;;;;;;22.17;71.71;99466.00;10421621;28;20052;-67
2022/06/24 17:41:19;;;;;;;4.35;1.80;;;;;;;21.98;75.46;99491.28;10422641;28;20164;-68
2022/06/24 17:46:21;;;;;;;2.53;0.82;;;;;;;21.93;71.62;99499.25;10421300;28;20557;-68
2022/06/24 17:51:23;;;;;;;2.60;1.70;;;;;;;21.78;72.96;99508.47;10398980;28;20222;-68
2022/06/24 17:56:24;;;;;;;2.70;1.70;;;;;;;21.57;76.44;99511.50;10398601;28;20880;-68
2022/06/24 18:01:26;;;;;;;2.95;1.92;;;;;;;21.61;75.57;99524.38;10400928;28;20056;-68
2022/06/24 18:06:27;;;;;;;3.65;2.40;;;;;;;21.31;78.11;99524.03;10399485;28;20139;-68
2022/06/24 18:11:29;;;;;;;7.32;2.83;;;;;;;21.41;79.94;99534.41;10398865;28;20063;-69
2022/06/24 18:16:30;;;;;;;5.90;2.80;;;;;;;21.45;77.24;99530.25;10405306;28;20147;-68
2022/06/24 18:21:32;;;;;;;3.08;2.08;;;;;;;21.28;76.32;99538.00;10401466;28;20049;-68
2022/06/24 18:26:34;;;;;;;3.17;1.98;;;;;;;21.05;78.45;99544.69;10391465;28;20056;-67
2022/06/24 18:31:35;;;;;;;3.13;1.80;;;;;;;21.05;78.05;99563.63;10397610;28;20151;-68
2022/06/24 18:36:37;;;;;;;4.22;2.22;;;;;;;20.87;80.55;99569.66;10393832;28;20529;-69
2022/06/24 18:41:39;;;;;;;4.00;2.85;;;;;;;20.89;80.25;99580.28;10396425;28;20056;-68
2022/06/24 18:46:40;;;;;;;3.83;2.28;;;;;;;20.76;82.11;99587.34;10395365;28;20124;-68
2022/06/24 18:51:42;;;;;;;4.65;2.30;;;;;;;20.84;81.58;99595.25;10389920;28;20056;-68
2022/06/24 18:56:44;;;;;;;3.05;2.15;;;;;;;20.63;82.34;99587.28;10390654;28;20452;-69
2022/06/24 19:01:45;;;;;;;2.63;2.00;;;;;;;20.62;83.47;99601.84;10395319;28;20639;-69
2022/06/24 19:06:47;;;;;;;3.47;1.92;;;;;;;20.64;82.46;99610.56;10398108;28;22197;-70
2022/06/24 19:11:49;;;;;;;3.80;2.35;;;;;;;20.68;82.36;99611.03;10395848;28;25308;-67
2022/06/24 19:16:51;;;;;;;1.75;1.55;;;;;;;20.52;82.91;99610.31;10395181;28;20051;-69
2022/06/24 19:21:52;;;;;;;3.20;2.10;;;;;;;20.56;83.29;99618.88;10397428;28;20357;-68
2022/06/24 19:26:54;;;;;;;3.50;1.63;;;;;;;20.56;82.31;99616.19;10398148;28;20060;-70
2022/06/24 19:31:58;;;;;;;2.67;1.95;;;;;;;20.51;83.20;99616.78;10392198;28;20053;-70
2022/06/24 19:37:00;;;;;;;2.45;1.50;;;;;;;20.44;82.90;99611.34;10391306;28;20056;-68
2022/06/24 19:42:02;;;;;;;3.55;2.00;;;;;;;20.46;83.90;99612.00;10396617;28;20089;-70
2022/06/24 19:47:04;;;;;;;4.25;2.17;;;;;;;20.39;84.37;99619.25;10401015;28;20082;-72
2022/06/24 19:52:05;;;;;;;2.33;1.88;;;;;;;20.38;83.46;99614.88;10397281;28;20052;-71
2022/06/24 19:57:07;;;;;;;3.50;2.13;;;;;;;20.38;86.14;99614.88;10401044;28;20917;-72
2022/06/24 20:07:28;;;;;;;3.53;1.40;;;;;;;20.06;84.73;99622.66;10391429;28;20064;-68
2022/06/24 20:12:30;;;;;;;3.95;1.73;;;;;;;20.04;84.43;99622.03;10389292;28;20565;-69
2022/06/24 20:17:32;;;;;;;2.28;1.42;;;;;;;20.01;85.57;99633.25;10386845;28;20090;-67
2022/06/24 20:22:34;;;;;;;3.33;1.48;;;;;;;20.03;84.62;99625.75;10379660;28;20228;-67
2022/06/24 20:27:35;;;;;;;2.90;1.70;;;;;;;19.84;85.97;99637.28;10385517;28;20055;-68
2022/06/24 20:32:38;;;;;;;2.35;2.15;;;;;;;19.75;86.73;99631.19;10388784;28;20822;-68
2022/06/24 20:37:40;;;;;;;2.60;2.22;;;;;;;19.68;85.95;99635.69;10385227;28;20766;-69
2022/06/24 20:42:41;;;;;;;2.13;1.92;;;;;;;19.60;87.54;99634.00;10385391;28;20061;-67
2022/06/24 20:47:43;;;;;;;2.55;1.80;;;;;;;19.59;87.11;99629.63;10379369;28;20522;-66
2022/06/24 20:52:44;;;;;;;3.88;2.25;;;;;;;19.57;88.89;99639.78;10378093;28;20851;-68
2022/06/24 20:57:47;;;;;;;2.33;2.08;;;;;;;19.57;87.09;99631.69;10387392;28;20135;-68
2022/06/24 21:02:51;;;;;;;3.83;2.15;;;;;;;19.46;88.73;99638.47;10381704;28;20048;-67
2022/06/24 21:07:59;;;;;;;4.00;3.05;;;;;;;19.47;88.33;99644.69;10350552;28;20049;-67
2022/06/24 21:13:09;;;;;;;2.90;2.17;;;;;;;19.35;90.00;99634.47;10368128;28;20060;-58
2022/06/24 21:18:11;;;;;;;4.35;3.42;;;;;;;19.35;91.17;99642.56;10386301;28;20564;-58
2022/06/24 21:23:16;;;;;;;3.55;2.80;;;;;;;19.49;87.86;99645.34;10381216;28;20124;-69
2022/06/24 21:28:18;;;;;;;4.15;2.70;;;;;;;19.31;89.06;99641.25;10396148;28;20095;-69
2022/06/24 21:33:19;;;;;;;3.45;3.15;;;;;;;19.25;89.96;99639.34;10390474;28;20051;-69
2022/06/24 21:38:21;;;;;;;4.53;3.85;;;;;;;19.18;90.79;99641.97;10394359;28;20063;-69
2022/06/24 21:43:23;;;;;;;6.10;5.10;;;;;;;19.14;91.81;99645.25;10392623;28;20534;-69
2022/06/24 21:48:24;;;;;;;6.32;5.35;;;;;;;19.19;91.18;99645.53;10399718;28;20076;-69
2022/06/24 21:53:26;;;;;;;7.28;6.50;;;;;;;19.13;90.83;99646.31;10396867;28;20619;-69
2022/06/24 21:58:27;;;;;;;7.45;6.80;;;;;;;19.16;91.47;99654.00;10402232;28;20049;-67
2022/06/24 22:03:29;;;;;;;7.78;7.07;;;;;;;19.13;92.49;99654.41;10405315;28;20364;-69
2022/06/24 22:08:30;;;;;;;8.40;7.78;;;;;;;19.08;93.31;99650.41;10404171;28;20609;-69
2022/06/24 22:13:32;;;;;;;7.22;6.60;;;;;;;19.15;92.96;99655.03;10396259;28;20052;-70
2022/06/24 22:18:52;;;;;;;8.07;7.28;;;;;;;19.21;92.46;99659.66;10396887;28;20083;-70
2022/06/24 22:23:53;;;;;;;9.40;8.50;;;;;;;19.22;91.82;99655.94;10399022;28;20125;-67
2022/06/24 22:28:55;;;;;;;8.95;8.02;;;;;;;19.19;92.75;99661.72;10396371;28;20068;-69
2022/06/24 22:33:56;;;;;;;9.25;8.35;;;;;;;19.02;94.10;99661.97;10391449;28;20060;-68
2022/06/24 22:38:58;;;;;;;8.57;7.82;;;;;;;19.02;93.57;99683.56;10400605;28;20114;-71
2022/06/24 22:43:59;;;;;;;8.13;7.43;;;;;;;19.00;94.52;99673.97;10405548;28;20677;-73
2022/06/24 22:49:01;;;;;;;7.80;6.97;;;;;;;18.93;94.07;99671.22;10400154;28;20724;-73
2022/06/24 22:54:02;;;;;;;8.52;7.45;;;;;;;19.00;94.85;99674.81;10396812;28;20190;-74
2022/06/24 22:59:04;;;;;;;6.85;6.25;;;;;;;19.12;94.59;99677.00;10399145;28;20177;-69
2022/06/24 23:04:05;;;;;;;6.43;5.82;;;;;;;19.17;93.05;99682.63;10407940;22;20126;-72
2022/06/24 23:09:07;;;;;;;7.07;6.47;;;;;;;19.11;91.91;99691.50;10420292;28;20052;-70
2022/06/24 23:14:08;;;;;;;7.90;6.57;;;;;;;19.02;92.91;99688.09;10426883;28;20159;-71
2022/06/24 23:19:10;;;;;;;6.93;5.97;;;;;;;19.16;92.59;99700.69;10425319;28;20058;-70
2022/06/24 23:24:12;;;;;;;5.65;5.20;;;;;;;19.01;93.45;99706.16;10423576;28;20070;-69
2022/06/24 23:29:13;;;;;;;5.18;4.75;;;;;;;18.94;92.86;99705.25;10421217;28;20048;-69
2022/06/24 23:34:15;;;;;;;6.03;4.80;;;;;;;19.00;92.81;99715.25;10432534;28;20102;-72
2022/06/24 23:39:16;;;;;;;5.30;4.38;;;;;;;19.01;93.18;99714.25;10445254;28;20063;-73
2022/06/24 23:44:17;;;;;;;4.72;4.22;;;;;;;19.01;91.10;99730.44;10456505;28;20142;-71
2022/06/24 23:54:40;;;;;;;5.65;3.45;;;;;;;18.90;91.20;99744.44;10440655;28;20101;-72
2022/06/24 23:59:41;;;;;;;3.08;2.78;;;;;;;18.97;90.27;99745.31;10443477;28;20664;-73
